Terminal Aerodrome Forecast
Issued by NWS

Home | Current Version | Previous Version | Text Only | Print | Product List | Glossary On
Versions: 1 2 3 4 5 6 7 8 9 10 11 12 13 14 15 16 17 18 19 20 21 22 23 24 25 26 27 28 29 30 31 32 33 34 35 36 37 38 39 40 41
000
FTAK31 PANC 020622 AAA
TAFADQ
TAF AMD
PADQ 020622Z 0206/0306 35020G30KT P6SM -RA OVC025
      TEMPO 0206/0209 3SM -RA OVC015
     FM020900 33020G30KT P6SM -SHRA OVC025
     FM022100 33020G35KT P6SM BKN050
     FM030300 32012G20KT P6SM SKC=

USA.gov is the U.S. government's official web portal to all federal, state and local government web resources and services.